Time;durP1;ratioP1;P1;durP2;ratioP2;P2;SDS_P1;SDS_P2;PMS_P1;PMS_P2;Temp;Humidity;BMP_temperature;BMP_pressure;BME280_temperature;BME280_humidity;BME280_pressure;Samples;Min_cycle;Max_cycle;Signal;HPM_P1;HPM_P2
2023/09/16 00:02:24;;;;;;;10.50;6.00;;;14.10;99.90;;;;;;5064858;28;20036;-80
2023/09/16 00:04:51;;;;;;;10.48;5.82;;;14.10;99.90;;;;;;5065883;28;20055;-88
2023/09/16 00:07:17;;;;;;;9.30;5.70;;;14.10;99.90;;;;;;5047050;28;20102;-80
2023/09/16 00:09:43;;;;;;;11.27;6.18;;;14.10;99.90;;;;;;5047598;28;20509;-88
2023/09/16 00:12:09;;;;;;;9.77;6.15;;;14.10;99.90;;;;;;5047863;28;20101;-79
2023/09/16 00:14:36;;;;;;;8.45;5.82;;;14.10;99.90;;;;;;5066110;28;20084;-87
2023/09/16 00:17:03;;;;;;;8.68;5.47;;;14.10;99.90;;;;;;5046310;28;20080;-88
2023/09/16 00:19:29;;;;;;;9.27;5.45;;;14.10;99.90;;;;;;5046814;28;20052;-86
2023/09/16 00:21:57;;;;;;;8.27;5.30;;;14.10;99.90;;;;;;5047548;28;20135;-89
2023/09/16 00:24:23;;;;;;;9.10;5.60;;;14.10;99.90;;;;;;5064869;28;20040;-87
2023/09/16 00:26:48;;;;;;;8.38;5.25;;;14.10;99.90;;;;;;5046761;28;20040;-88
2023/09/16 00:29:14;;;;;;;9.07;5.85;;;14.10;99.90;;;;;;5053137;28;20119;-87
2023/09/16 00:31:40;;;;;;;9.43;5.63;;;14.10;99.90;;;;;;5046449;28;20502;-88
2023/09/16 00:34:05;;;;;;;9.50;6.15;;;14.10;99.90;;;;;;5030929;28;20045;-78
2023/09/16 00:36:31;;;;;;;8.38;6.38;;;14.10;99.90;;;;;;5046797;28;20105;-82
2023/09/16 00:38:56;;;;;;;9.43;6.90;;;14.10;99.90;;;;;;5046829;28;20039;-84
2023/09/16 00:41:22;;;;;;;10.27;6.93;;;14.10;99.90;;;;;;5046873;28;20032;-81
2023/09/16 00:43:49;;;;;;;9.98;5.63;;;14.10;99.90;;;;;;5047246;28;20056;-76
2023/09/16 00:46:15;;;;;;;9.57;6.47;;;14.10;99.90;;;;;;5028967;28;20036;-80
2023/09/16 00:48:45;;;;;;;10.10;6.13;;;14.10;99.90;;;;;;5046811;28;20826;-75
2023/09/16 00:51:13;;;;;;;10.48;6.47;;;14.10;99.90;;;;;;5046484;28;20483;-84
2023/09/16 00:53:40;;;;;;;10.50;6.57;;;14.10;99.90;;;;;;5064630;28;20051;-82
2023/09/16 00:56:07;;;;;;;10.90;6.93;;;14.10;99.90;;;;;;5065393;28;20403;-84
2023/09/16 00:58:34;;;;;;;6.65;5.20;;;14.10;99.90;;;;;;5064911;28;20052;-88
2023/09/16 01:01:00;;;;;;;11.50;5.82;;;14.10;99.90;;;;;;5045763;28;20143;-88
2023/09/16 01:03:26;;;;;;;9.38;5.53;;;14.10;99.90;;;;;;5064007;28;20512;-89
2023/09/16 01:05:54;;;;;;;14.02;6.40;;;14.10;99.90;;;;;;5064172;28;20044;-88
2023/09/16 01:08:20;;;;;;;9.85;5.97;;;14.10;99.90;;;;;;5064616;28;20119;-89
2023/09/16 01:10:46;;;;;;;9.52;6.13;;;14.10;99.90;;;;;;5046572;28;20131;-88
2023/09/16 01:13:12;;;;;;;12.82;6.50;;;14.10;99.90;;;;;;5029115;28;20080;-85
2023/09/16 01:15:46;;;;;;;9.57;6.60;;;14.00;99.90;;;;;;5045958;28;20060;-89
2023/09/16 01:18:32;;;;;;;10.30;6.28;;;14.00;99.90;;;;;;5046646;28;20036;-85
2023/09/16 01:20:59;;;;;;;9.25;6.68;;;14.10;99.90;;;;;;5064225;28;20522;-84
2023/09/16 01:23:24;;;;;;;9.20;6.70;;;14.00;99.90;;;;;;5057118;28;20491;-82
2023/09/16 01:25:50;;;;;;;10.05;6.18;;;14.10;99.90;;;;;;5046458;28;20095;-77
2023/09/16 01:28:16;;;;;;;11.98;7.43;;;14.00;99.90;;;;;;5045889;28;20109;-85
2023/09/16 01:30:47;;;;;;;9.57;6.43;;;14.10;99.90;;;;;;5045237;28;20047;-88
2023/09/16 01:33:27;;;;;;;8.30;5.65;;;14.00;99.90;;;;;;5063785;28;20185;-81
2023/09/16 01:36:03;;;;;;;11.90;6.53;;;14.00;99.90;;;;;;5064104;28;20398;-85
2023/09/16 01:38:32;;;;;;;10.68;6.60;;;14.00;99.90;;;;;;5063729;28;20040;-81
2023/09/16 01:40:59;;;;;;;9.73;6.38;;;14.00;99.90;;;;;;5047643;28;20032;-87
2023/09/16 01:43:25;;;;;;;8.70;5.57;;;14.00;99.90;;;;;;5045618;28;20040;-84
2023/09/16 01:45:52;;;;;;;10.00;6.53;;;14.00;99.90;;;;;;5063471;28;20083;-88
2023/09/16 01:48:18;;;;;;;11.52;6.80;;;14.00;99.90;;;;;;5045056;28;20136;-88
2023/09/16 01:50:45;;;;;;;11.90;7.30;;;14.00;99.90;;;;;;5045881;28;20123;-87
2023/09/16 01:53:11;;;;;;;11.30;6.90;;;14.00;99.90;;;;;;5045648;28;20787;-86
2023/09/16 01:55:37;;;;;;;12.55;6.95;;;14.00;99.90;;;;;;5046063;28;20549;-82
2023/09/16 01:58:04;;;;;;;11.48;7.15;;;14.00;99.90;;;;;;5044794;28;20037;-87
2023/09/16 02:00:29;;;;;;;12.95;7.72;;;13.90;99.90;;;;;;5044500;28;20032;-83
2023/09/16 02:02:55;;;;;;;16.20;7.63;;;13.90;99.90;;;;;;5045604;28;20044;-84
2023/09/16 02:05:20;;;;;;;11.35;8.20;;;13.90;99.90;;;;;;5045280;28;20041;-83
2023/09/16 02:07:46;;;;;;;10.45;7.35;;;13.90;99.90;;;;;;5045372;28;20041;-79
2023/09/16 02:10:12;;;;;;;12.50;7.65;;;13.90;99.90;;;;;;5045371;28;20044;-82
2023/09/16 02:12:37;;;;;;;11.23;7.75;;;13.90;99.90;;;;;;5045591;28;20045;-84
2023/09/16 02:15:06;;;;;;;14.02;7.95;;;13.90;99.90;;;;;;5044367;28;20554;-84
2023/09/16 02:17:32;;;;;;;14.98;9.50;;;13.90;99.90;;;;;;5045264;28;20072;-82
2023/09/16 02:19:57;;;;;;;11.68;7.60;;;13.90;99.90;;;;;;5063220;28;20578;-80
2023/09/16 02:22:23;;;;;;;10.73;7.38;;;13.90;99.90;;;;;;5028258;28;20037;-80
2023/09/16 02:24:48;;;;;;;14.02;8.93;;;13.90;99.90;;;;;;5045523;28;20055;-80
2023/09/16 02:27:14;;;;;;;12.57;8.00;;;13.80;99.90;;;;;;5045199;28;20694;-81
2023/09/16 02:29:40;;;;;;;13.57;8.82;;;13.80;99.90;;;;;;5045102;28;20041;-85
2023/09/16 02:32:05;;;;;;;13.20;8.50;;;13.80;99.90;;;;;;5044918;28;20040;-84
2023/09/16 02:34:35;;;;;;;14.43;8.35;;;13.80;99.90;;;;;;5044798;28;20521;-75
2023/09/16 02:37:01;;;;;;;13.35;8.70;;;13.80;99.90;;;;;;5045136;28;20090;-81
2023/09/16 02:39:26;;;;;;;14.30;8.07;;;13.80;99.90;;;;;;5044557;28;20445;-77
2023/09/16 02:41:52;;;;;;;15.02;8.82;;;13.80;99.90;;;;;;5045058;28;20059;-83
2023/09/16 02:44:17;;;;;;;16.15;9.10;;;13.70;99.90;;;;;;5062646;28;20401;-85
2023/09/16 02:46:43;;;;;;;13.98;9.18;;;13.80;99.90;;;;;;5043984;28;20040;-76
2023/09/16 02:49:09;;;;;;;15.60;8.35;;;13.70;99.90;;;;;;5044916;28;20391;-83
2023/09/16 02:51:34;;;;;;;14.50;8.52;;;13.70;99.90;;;;;;5045830;28;20051;-88
2023/09/16 02:54:01;;;;;;;14.40;8.52;;;13.70;99.90;;;;;;5044958;28;20075;-88
2023/09/16 02:56:27;;;;;;;15.40;8.73;;;13.70;99.90;;;;;;5044589;28;20151;-87
2023/09/16 02:58:53;;;;;;;13.82;8.60;;;13.70;99.90;;;;;;5062979;28;20044;-82
2023/09/16 03:01:19;;;;;;;17.85;9.40;;;13.70;99.90;;;;;;5043839;28;20852;-88
2023/09/16 03:03:45;;;;;;;18.20;9.55;;;13.70;99.90;;;;;;5045087;28;20060;-79
2023/09/16 03:06:10;;;;;;;15.23;10.18;;;13.70;99.90;;;;;;5045005;28;20097;-87
2023/09/16 03:08:36;;;;;;;17.23;9.38;;;13.70;99.90;;;;;;5045302;28;20056;-87
2023/09/16 03:11:06;;;;;;;16.90;9.90;;;13.70;99.90;;;;;;5044692;28;20052;-87
2023/09/16 03:13:32;;;;;;;17.13;9.30;;;13.70;99.90;;;;;;5043836;28;20092;-88
2023/09/16 03:16:20;;;;;;;15.68;9.55;;;13.70;99.90;;;;;;5044161;28;20048;-87
2023/09/16 03:18:48;;;;;;;15.30;9.07;;;13.60;99.90;;;;;;5044266;28;20091;-88
2023/09/16 03:21:14;;;;;;;13.48;8.57;;;13.60;99.90;;;;;;5043953;28;20106;-86
2023/09/16 03:23:41;;;;;;;14.35;9.70;;;13.60;99.90;;;;;;5044464;28;20383;-76
2023/09/16 03:26:08;;;;;;;13.75;9.35;;;13.60;99.90;;;;;;5044936;28;20478;-85
2023/09/16 03:28:33;;;;;;;16.65;10.52;;;13.60;99.90;;;;;;5045130;28;20398;-85
2023/09/16 03:30:59;;;;;;;14.25;9.50;;;13.60;99.90;;;;;;5043877;28;20040;-88
2023/09/16 03:33:25;;;;;;;14.43;9.07;;;13.50;99.90;;;;;;5062397;28;20529;-82
2023/09/16 03:35:50;;;;;;;16.73;11.15;;;13.50;99.90;;;;;;5044398;28;20075;-87
2023/09/16 03:38:17;;;;;;;17.10;9.60;;;13.50;99.90;;;;;;5044072;28;20085;-88
2023/09/16 03:40:42;;;;;;;15.98;9.75;;;13.50;99.90;;;;;;5044646;28;20049;-87
2023/09/16 03:43:08;;;;;;;16.08;10.55;;;13.50;99.90;;;;;;5044268;28;20045;-86
2023/09/16 03:45:33;;;;;;;15.85;10.32;;;13.50;99.90;;;;;;5061209;28;20052;-79
2023/09/16 03:47:59;;;;;;;17.48;9.93;;;13.50;99.90;;;;;;5027658;28;20040;-86
2023/09/16 03:50:26;;;;;;;14.82;9.18;;;13.50;99.90;;;;;;5061687;28;20526;-85
2023/09/16 03:52:52;;;;;;;16.70;9.98;;;13.50;99.90;;;;;;5044171;28;20040;-87
2023/09/16 03:55:18;;;;;;;15.13;9.80;;;13.60;99.90;;;;;;5061784;28;20067;-86
2023/09/16 03:57:43;;;;;;;15.30;9.63;;;13.60;99.90;;;;;;5044617;28;20450;-83
2023/09/16 04:00:10;;;;;;;13.18;8.93;;;13.60;99.90;;;;;;5042857;28;20040;-84
2023/09/16 04:02:38;;;;;;;15.57;8.90;;;13.50;99.90;;;;;;5034301;28;20041;-84
2023/09/16 04:05:04;;;;;;;15.70;9.50;;;13.50;99.90;;;;;;5044399;28;20491;-82
2023/09/16 04:07:30;;;;;;;15.35;9.30;;;13.50;99.90;;;;;;5043759;28;20036;-83
2023/09/16 04:09:55;;;;;;;19.85;9.50;;;13.40;99.90;;;;;;5062026;28;20109;-76
2023/09/16 04:12:21;;;;;;;14.77;9.82;;;13.40;99.90;;;;;;5044052;28;20067;-79
2023/09/16 04:14:47;;;;;;;15.07;8.73;;;13.40;99.90;;;;;;5043346;28;20142;-83
2023/09/16 04:17:12;;;;;;;17.60;10.57;;;13.40;99.90;;;;;;5043474;28;20041;-82
2023/09/16 04:19:38;;;;;;;16.88;10.98;;;13.40;99.90;;;;;;5044529;28;20080;-80
2023/09/16 04:22:04;;;;;;;15.05;9.52;;;13.40;99.90;;;;;;5047688;28;20132;-79
2023/09/16 04:24:29;;;;;;;19.65;10.50;;;13.40;99.90;;;;;;5047241;28;20129;-83
2023/09/16 04:26:55;;;;;;;14.77;9.25;;;13.40;99.90;;;;;;5047495;28;20530;-76
2023/09/16 04:29:20;;;;;;;14.13;10.50;;;13.40;99.90;;;;;;5047251;28;20048;-82
2023/09/16 04:31:46;;;;;;;16.60;10.32;;;13.40;99.90;;;;;;5047216;28;20109;-88
2023/09/16 04:34:12;;;;;;;16.10;9.60;;;13.30;99.90;;;;;;5064880;28;20040;-82
2023/09/16 04:36:40;;;;;;;14.98;10.00;;;13.30;99.90;;;;;;5065837;28;20522;-87
2023/09/16 04:39:05;;;;;;;16.65;9.45;;;13.30;99.90;;;;;;5065896;28;20045;-88
2023/09/16 04:41:31;;;;;;;16.98;10.57;;;13.30;99.90;;;;;;5046799;28;20090;-87
2023/09/16 04:43:57;;;;;;;20.63;12.15;;;13.30;99.90;;;;;;5047027;28;20570;-87
2023/09/16 04:46:23;;;;;;;17.08;10.55;;;13.30;99.90;;;;;;5045584;28;20048;-88
2023/09/16 04:48:48;;;;;;;15.43;10.48;;;13.30;99.90;;;;;;5047260;28;20471;-84
2023/09/16 04:51:14;;;;;;;16.00;10.25;;;13.30;99.90;;;;;;5064283;28;20105;-87
2023/09/16 04:53:40;;;;;;;17.70;10.57;;;13.30;99.90;;;;;;5065107;28;20040;-87
2023/09/16 04:56:05;;;;;;;17.40;10.60;;;13.30;99.90;;;;;;5047073;28;20048;-84
2023/09/16 04:58:31;;;;;;;18.73;10.82;;;13.30;99.90;;;;;;5029962;28;20036;-87
2023/09/16 05:01:01;;;;;;;18.48;10.40;;;13.30;99.90;;;;;;5063366;28;20101;-86
2023/09/16 05:03:26;;;;;;;17.23;9.73;;;13.30;99.90;;;;;;5046342;28;20036;-88
2023/09/16 05:05:53;;;;;;;18.40;11.52;;;13.30;99.90;;;;;;5046025;28;20067;-85
2023/09/16 05:08:19;;;;;;;19.27;11.35;;;13.20;99.90;;;;;;5045478;28;20042;-87
2023/09/16 05:10:45;;;;;;;19.10;10.68;;;13.20;99.90;;;;;;5030326;28;20556;-88
2023/09/16 05:13:10;;;;;;;18.23;10.18;;;13.20;99.90;;;;;;5046353;28;20049;-85
2023/09/16 05:15:36;;;;;;;15.55;9.52;;;13.20;99.90;;;;;;5045795;28;20071;-86
2023/09/16 05:18:02;;;;;;;19.10;10.55;;;13.20;99.90;;;;;;5045830;28;20144;-84
2023/09/16 05:20:27;;;;;;;18.25;10.13;;;13.20;99.90;;;;;;5046139;28;20109;-84
2023/09/16 05:22:53;;;;;;;16.48;11.13;;;13.20;99.90;;;;;;5046548;28;20182;-81
2023/09/16 05:25:18;;;;;;;17.77;10.50;;;13.20;99.90;;;;;;5045723;28;20036;-83
2023/09/16 05:27:45;;;;;;;20.90;10.70;;;13.20;99.90;;;;;;5029116;28;20037;-83
2023/09/16 05:30:11;;;;;;;18.42;10.38;;;13.20;99.90;;;;;;5028472;28;20250;-77
2023/09/16 05:32:37;;;;;;;15.68;10.40;;;13.20;99.90;;;;;;5045309;28;20184;-81
2023/09/16 05:35:02;;;;;;;16.77;9.98;;;13.20;99.90;;;;;;5063772;28;20097;-83
2023/09/16 05:37:28;;;;;;;17.55;10.45;;;13.20;99.90;;;;;;5045921;28;20395;-76
2023/09/16 05:39:53;;;;;;;16.92;10.35;;;13.20;99.90;;;;;;5029346;28;20108;-82
2023/09/16 05:42:19;;;;;;;15.73;10.55;;;13.20;99.90;;;;;;5045672;28;20475;-83
2023/09/16 05:44:45;;;;;;;14.52;8.80;;;13.20;99.90;;;;;;5045835;28;20048;-84
2023/09/16 05:47:10;;;;;;;19.35;10.40;;;13.20;99.90;;;;;;5045746;28;20041;-83
2023/09/16 05:49:36;;;;;;;14.18;9.48;;;13.20;99.90;;;;;;5062972;28;20068;-88
2023/09/16 05:52:02;;;;;;;16.67;9.90;;;13.20;99.90;;;;;;5045511;28;20036;-77
2023/09/16 05:54:27;;;;;;;17.55;10.10;;;13.20;99.90;;;;;;5046153;28;20063;-88
2023/09/16 05:56:53;;;;;;;12.90;8.85;;;13.20;99.90;;;;;;5045678;28;20037;-88
2023/09/16 05:59:21;;;;;;;15.50;9.80;;;13.20;99.90;;;;;;5044040;28;20055;-88
2023/09/16 06:01:47;;;;;;;16.02;8.65;;;13.20;99.90;;;;;;5045586;28;20051;-86
2023/09/16 06:04:12;;;;;;;25.90;9.48;;;13.20;99.90;;;;;;5045862;28;20045;-87
2023/09/16 06:06:38;;;;;;;15.00;9.52;;;13.30;99.90;;;;;;5042426;28;20076;-88
2023/09/16 06:09:04;;;;;;;15.32;9.43;;;13.30;99.90;;;;;;5045805;28;20052;-85
2023/09/16 06:11:30;;;;;;;16.63;8.93;;;13.30;99.90;;;;;;5045122;28;20500;-87
2023/09/16 06:13:56;;;;;;;18.90;10.38;;;13.30;99.90;;;;;;5045047;28;20084;-83
2023/09/16 06:16:22;;;;;;;14.50;9.57;;;13.30;99.90;;;;;;5060990;28;20487;-84
2023/09/16 06:18:48;;;;;;;16.15;9.60;;;13.30;99.90;;;;;;5030725;28;20036;-77
2023/09/16 06:21:15;;;;;;;14.40;9.32;;;13.40;99.90;;;;;;5063598;28;20085;-84
2023/09/16 06:23:42;;;;;;;18.90;11.18;;;13.30;99.90;;;;;;5045920;28;20509;-83
2023/09/16 06:26:09;;;;;;;22.33;11.18;;;13.40;99.90;;;;;;5028982;28;20139;-83
2023/09/16 06:28:35;;;;;;;23.95;11.85;;;13.40;99.90;;;;;;5045613;28;20086;-82
2023/09/16 06:31:01;;;;;;;17.17;10.05;;;13.40;99.90;;;;;;5043821;28;20051;-86
2023/09/16 06:33:26;;;;;;;16.33;11.00;;;13.40;99.90;;;;;;5045177;28;20037;-84
2023/09/16 06:35:52;;;;;;;17.23;10.90;;;13.50;99.90;;;;;;5044876;28;20504;-81
2023/09/16 06:38:18;;;;;;;16.73;9.43;;;13.50;99.90;;;;;;5028691;28;20067;-84
2023/09/16 06:40:43;;;;;;;17.90;11.48;;;13.50;99.90;;;;;;5028612;28;20041;-81
2023/09/16 06:43:09;;;;;;;17.77;9.60;;;13.50;99.90;;;;;;5044199;28;20044;-84
2023/09/16 06:45:35;;;;;;;18.90;11.77;;;13.60;99.90;;;;;;5027775;28;20048;-85
2023/09/16 06:48:00;;;;;;;19.13;11.07;;;13.60;99.90;;;;;;5061597;28;20372;-84
2023/09/16 06:50:26;;;;;;;17.90;11.15;;;13.60;99.90;;;;;;5044762;28;20033;-84
2023/09/16 06:52:52;;;;;;;16.42;11.30;;;13.60;99.90;;;;;;5044490;28;20495;-87
2023/09/16 06:55:17;;;;;;;16.92;10.73;;;13.60;99.90;;;;;;5027226;28;20041;-88
2023/09/16 06:57:44;;;;;;;23.30;12.77;;;13.70;99.90;;;;;;5044437;28;20051;-76
2023/09/16 07:00:10;;;;;;;20.75;10.85;;;13.70;99.90;;;;;;5043075;28;20048;-88
2023/09/16 07:02:36;;;;;;;17.70;11.55;;;13.70;99.90;;;;;;5044668;28;20040;-89
2023/09/16 07:05:02;;;;;;;21.83;11.25;;;13.80;99.90;;;;;;5044930;28;20371;-89
2023/09/16 07:07:28;;;;;;;17.38;11.35;;;13.70;99.90;;;;;;5043907;28;20131;-86
2023/09/16 07:09:57;;;;;;;18.73;10.23;;;13.80;99.90;;;;;;5044350;28;20044;-89
2023/09/16 07:12:24;;;;;;;20.35;11.50;;;13.80;99.90;;;;;;5061943;28;20045;-83
2023/09/16 07:14:50;;;;;;;22.35;11.93;;;13.90;99.90;;;;;;5043154;28;20048;-90
2023/09/16 07:17:16;;;;;;;20.35;11.23;;;13.90;99.90;;;;;;5062035;28;20120;-90
2023/09/16 07:19:42;;;;;;;22.10;12.57;;;13.90;99.90;;;;;;5044341;28;20147;-90
2023/09/16 07:22:07;;;;;;;20.40;12.18;;;13.90;99.90;;;;;;5043627;28;20040;-81
2023/09/16 07:24:33;;;;;;;20.50;11.93;;;14.00;99.90;;;;;;5043868;28;20048;-90
2023/09/16 07:26:59;;;;;;;20.83;12.32;;;14.00;99.90;;;;;;5044516;28;20076;-90
2023/09/16 07:29:24;;;;;;;20.27;11.82;;;14.10;99.90;;;;;;5061741;28;20043;-76
2023/09/16 07:31:50;;;;;;;22.60;13.05;;;14.10;99.90;;;;;;5060639;28;20521;-86
2023/09/16 07:34:16;;;;;;;23.05;12.27;;;14.10;99.90;;;;;;5043445;28;20468;-86
2023/09/16 07:36:42;;;;;;;19.80;11.75;;;14.10;99.90;;;;;;5027159;28;20049;-77
2023/09/16 07:39:08;;;;;;;26.27;12.05;;;14.20;99.90;;;;;;5061582;28;20105;-82
2023/09/16 07:41:33;;;;;;;22.40;11.80;;;14.20;99.90;;;;;;5043867;28;20555;-84
2023/09/16 07:43:59;;;;;;;22.92;12.32;;;14.30;99.90;;;;;;5042524;28;20045;-83
2023/09/16 07:46:25;;;;;;;20.65;11.48;;;14.30;99.90;;;;;;5061002;28;20082;-84
2023/09/16 07:48:51;;;;;;;22.63;11.23;;;14.30;99.90;;;;;;5039308;28;20041;-82
2023/09/16 07:51:16;;;;;;;21.85;11.45;;;14.40;99.90;;;;;;5044001;28;20032;-83
2023/09/16 07:53:42;;;;;;;21.48;12.50;;;14.40;99.90;;;;;;5044430;28;20328;-84
2023/09/16 07:56:07;;;;;;;20.63;11.80;;;14.40;99.90;;;;;;5044796;28;20059;-86
2023/09/16 07:58:33;;;;;;;20.60;11.20;;;14.40;99.90;;;;;;5029656;28;20128;-83
2023/09/16 08:00:59;;;;;;;21.70;12.38;;;14.50;99.90;;;;;;5064694;28;20287;-87
2023/09/16 08:03:24;;;;;;;23.20;10.55;;;14.60;99.90;;;;;;5045681;28;20044;-89
2023/09/16 08:05:50;;;;;;;18.38;11.13;;;14.60;99.90;;;;;;5047683;28;20483;-89
2023/09/16 08:08:16;;;;;;;22.95;12.48;;;14.60;99.90;;;;;;5047680;28;20082;-88
2023/09/16 08:10:51;;;;;;;22.45;11.90;;;14.70;99.90;;;;;;5047882;28;20049;-89
2023/09/16 08:13:20;;;;;;;19.65;10.00;;;14.70;99.90;;;;;;5047718;28;20611;-83
2023/09/16 08:15:46;;;;;;;19.60;11.43;;;14.80;99.90;;;;;;5046797;28;20059;-81
2023/09/16 08:18:12;;;;;;;22.42;11.48;;;14.80;99.90;;;;;;5048003;28;20040;-80
2023/09/16 08:20:38;;;;;;;18.75;11.57;;;14.80;99.90;;;;;;5047821;28;20482;-81
2023/09/16 08:23:04;;;;;;;17.23;11.00;;;14.90;99.90;;;;;;5036025;28;20142;-77
2023/09/16 08:25:30;;;;;;;21.90;11.60;;;14.90;99.90;;;;;;5064129;28;20124;-81
2023/09/16 08:27:55;;;;;;;19.20;11.73;;;14.90;99.90;;;;;;5064116;28;20178;-78
2023/09/16 08:30:21;;;;;;;21.58;11.57;;;14.90;99.90;;;;;;5045020;28;20450;-83
2023/09/16 08:32:47;;;;;;;20.48;11.05;;;15.10;99.90;;;;;;5044807;28;20051;-88
2023/09/16 08:35:13;;;;;;;15.70;8.88;;;15.10;99.90;;;;;;5035203;28;20391;-78
2023/09/16 08:37:39;;;;;;;16.52;9.25;;;15.20;99.90;;;;;;5036891;28;20093;-77
2023/09/16 08:40:05;;;;;;;18.05;11.27;;;15.30;99.90;;;;;;5042432;28;20045;-81
2023/09/16 08:42:34;;;;;;;15.73;9.88;;;15.30;99.90;;;;;;5060979;28;20062;-83
2023/09/16 08:45:04;;;;;;;19.92;11.25;;;15.40;99.90;;;;;;5045652;28;20491;-82
2023/09/16 08:47:34;;;;;;;20.77;10.82;;;15.50;99.90;;;;;;5047881;28;20085;-81
2023/09/16 08:50:05;;;;;;;21.63;11.05;;;15.60;99.90;;;;;;5057155;28;20045;-80
2023/09/16 08:52:46;;;;;;;20.67;11.93;;;15.60;99.90;;;;;;5061595;28;20040;-81
2023/09/16 08:55:13;;;;;;;22.25;10.52;;;15.70;99.90;;;;;;5045707;28;20399;-78
2023/09/16 08:57:45;;;;;;;14.45;9.77;;;15.80;99.90;;;;;;5046883;28;20036;-78
2023/09/16 09:00:11;;;;;;;19.50;10.95;;;15.80;99.90;;;;;;5053781;28;20051;-83
2023/09/16 09:02:38;;;;;;;18.73;10.82;;;15.80;99.90;;;;;;5046524;28;20060;-81
2023/09/16 09:05:06;;;;;;;17.25;9.38;;;15.90;99.90;;;;;;5044865;28;20036;-81
2023/09/16 09:07:36;;;;;;;17.90;10.50;;;15.90;99.90;;;;;;5043624;28;20084;-81
2023/09/16 09:10:01;;;;;;;18.85;9.65;;;15.90;99.90;;;;;;5054478;28;20055;-81
2023/09/16 09:12:28;;;;;;;16.10;9.75;;;16.00;99.90;;;;;;5056826;28;20048;-82
2023/09/16 09:14:54;;;;;;;15.02;9.52;;;16.00;99.90;;;;;;5041448;28;20048;-79
2023/09/16 09:17:22;;;;;;;16.73;9.27;;;16.10;99.90;;;;;;5045197;28;20064;-80
2023/09/16 09:19:48;;;;;;;16.67;10.07;;;16.20;99.90;;;;;;5043367;28;20045;-79
2023/09/16 09:22:14;;;;;;;15.13;9.48;;;16.20;99.90;;;;;;5040797;28;20056;-82
2023/09/16 09:24:40;;;;;;;17.52;8.38;;;16.30;99.90;;;;;;5051261;28;20048;-84
2023/09/16 09:27:06;;;;;;;12.75;8.70;;;16.40;99.90;;;;;;5040306;28;20044;-80
2023/09/16 09:29:32;;;;;;;13.77;7.88;;;16.40;99.90;;;;;;5060132;28;20067;-83
2023/09/16 09:31:58;;;;;;;12.68;7.60;;;16.40;99.90;;;;;;5046251;28;20047;-82
2023/09/16 09:34:28;;;;;;;14.50;9.32;;;16.50;99.90;;;;;;5043037;28;20044;-83
2023/09/16 09:36:54;;;;;;;12.65;8.07;;;16.50;99.90;;;;;;5044632;28;20048;-80
2023/09/16 09:39:19;;;;;;;14.60;6.95;;;16.50;99.90;;;;;;5044048;28;20506;-79
2023/09/16 09:41:46;;;;;;;14.98;6.85;;;16.50;99.90;;;;;;5060147;28;20136;-79
2023/09/16 09:44:15;;;;;;;12.15;7.07;;;16.50;99.90;;;;;;5040630;28;20044;-83
2023/09/16 09:46:41;;;;;;;11.45;6.43;;;16.60;99.90;;;;;;5044397;28;20139;-80
2023/09/16 09:49:08;;;;;;;5.10;4.05;;;16.70;99.90;;;;;;5042705;28;20131;-83
2023/09/16 09:51:34;;;;;;;7.20;4.68;;;16.70;99.90;;;;;;5044557;28;20090;-84
2023/09/16 09:54:00;;;;;;;6.88;4.82;;;16.70;99.90;;;;;;5058941;28;20048;-81
2023/09/16 09:56:25;;;;;;;8.90;4.35;;;16.70;99.90;;;;;;5022222;28;20494;-83
2023/09/16 09:58:51;;;;;;;7.18;4.72;;;16.70;99.90;;;;;;5043337;28;20174;-84
2023/09/16 10:01:17;;;;;;;7.35;4.90;;;16.70;99.90;;;;;;5062933;28;20076;-84
2023/09/16 10:03:49;;;;;;;7.55;4.30;;;16.80;99.90;;;;;;5045017;28;20143;-81
2023/09/16 10:06:17;;;;;;;6.22;3.80;;;16.80;99.90;;;;;;5045613;28;20044;-79
2023/09/16 10:08:43;;;;;;;8.20;4.47;;;16.80;99.90;;;;;;5045020;28;20054;-79
2023/09/16 10:11:09;;;;;;;4.88;3.30;;;16.70;99.90;;;;;;5043464;28;20841;-80
2023/09/16 10:13:36;;;;;;;5.72;3.35;;;16.80;99.90;;;;;;5042168;28;20056;-83
2023/09/16 10:16:02;;;;;;;8.35;4.57;;;16.80;99.90;;;;;;5041537;28;20036;-82
2023/09/16 10:18:28;;;;;;;4.40;3.45;;;16.80;99.90;;;;;;5042922;28;20049;-82
2023/09/16 10:20:55;;;;;;;5.95;3.67;;;16.90;99.90;;;;;;5046069;28;20048;-82
2023/09/16 10:23:22;;;;;;;5.93;3.63;;;16.90;99.90;;;;;;5062808;28;20036;-81
2023/09/16 10:25:48;;;;;;;5.28;3.60;;;16.90;99.90;;;;;;5044458;28;20048;-85
2023/09/16 10:28:14;;;;;;;5.13;3.83;;;16.90;99.90;;;;;;5059486;28;20086;-79
2023/09/16 10:30:40;;;;;;;6.82;3.70;;;17.00;99.90;;;;;;5057736;28;20044;-81
2023/09/16 10:33:09;;;;;;;9.48;5.47;;;17.10;99.90;;;;;;5041021;28;20474;-77
2023/09/16 10:35:38;;;;;;;5.85;4.03;;;17.10;99.90;;;;;;5038483;28;20048;-81
2023/09/16 10:38:06;;;;;;;9.27;4.03;;;17.10;99.90;;;;;;5041141;28;20045;-80
2023/09/16 10:40:32;;;;;;;6.75;3.75;;;17.10;99.90;;;;;;5060224;28;20499;-80
2023/09/16 10:43:00;;;;;;;5.45;3.95;;;17.00;99.90;;;;;;5043735;28;20164;-79
2023/09/16 10:45:26;;;;;;;4.88;3.30;;;17.10;99.90;;;;;;5024116;28;20040;-80
2023/09/16 10:47:53;;;;;;;4.38;3.67;;;17.10;99.90;;;;;;5042722;28;20475;-77
2023/09/16 10:50:24;;;;;;;6.35;3.55;;;17.10;99.90;;;;;;5043096;28;20101;-80
2023/09/16 10:53:04;;;;;;;9.00;4.25;;;17.10;99.90;;;;;;5043535;28;20040;-80
2023/09/16 10:55:54;;;;;;;8.05;3.35;;;17.20;99.90;;;;;;5044060;28;20127;-78
2023/09/16 10:58:46;;;;;;;4.28;2.92;;;17.30;99.90;;;;;;5042639;28;20044;-80
2023/09/16 11:01:18;;;;;;;7.82;4.63;;;17.30;99.90;;;;;;5056005;28;20052;-81
2023/09/16 11:03:50;;;;;;;6.07;3.33;;;17.30;99.90;;;;;;5059432;28;20040;-77
2023/09/16 11:06:16;;;;;;;4.53;3.58;;;17.30;99.90;;;;;;5060129;28;20045;-79
2023/09/16 11:08:42;;;;;;;5.43;3.22;;;17.40;99.90;;;;;;5043254;28;20086;-82
2023/09/16 11:11:08;;;;;;;6.75;3.90;;;17.40;99.90;;;;;;5044063;28;20522;-78
2023/09/16 11:13:34;;;;;;;7.85;3.20;;;17.50;99.90;;;;;;5061158;28;20414;-80
2023/09/16 11:16:00;;;;;;;3.63;2.55;;;17.40;99.90;;;;;;5043990;28;20044;-78
2023/09/16 11:18:27;;;;;;;5.00;3.03;;;17.50;99.90;;;;;;5061552;28;20084;-81
2023/09/16 11:20:54;;;;;;;4.00;2.95;;;17.50;99.90;;;;;;5043772;28;20044;-79
2023/09/16 11:23:20;;;;;;;7.18;4.10;;;17.60;99.90;;;;;;5040590;28;20040;-82
2023/09/16 11:25:47;;;;;;;4.25;3.10;;;17.60;99.90;;;;;;5043585;28;20147;-79
2023/09/16 11:28:16;;;;;;;5.35;2.60;;;17.60;99.90;;;;;;5043680;28;20048;-82
2023/09/16 11:31:01;;;;;;;4.75;2.75;;;17.80;99.90;;;;;;5044917;28;20426;-82
2023/09/16 11:33:34;;;;;;;6.05;3.67;;;17.90;99.90;;;;;;5044627;28;20045;-77
2023/09/16 11:36:11;;;;;;;6.88;3.20;;;17.90;99.90;;;;;;5031785;28;20040;-77
2023/09/16 11:38:38;;;;;;;9.18;3.22;;;17.90;99.90;;;;;;5046521;28;20123;-76
2023/09/16 11:41:10;;;;;;;5.78;2.72;;;17.90;99.90;;;;;;5042338;28;20376;-81
2023/09/16 11:43:37;;;;;;;5.10;2.85;;;17.90;99.90;;;;;;5062180;28;20048;-79
2023/09/16 11:46:04;;;;;;;3.80;2.35;;;18.00;99.90;;;;;;5046662;28;20052;-80
2023/09/16 11:48:49;;;;;;;4.20;3.63;;;18.00;99.90;;;;;;5046163;28;20045;-80
2023/09/16 11:51:16;;;;;;;3.40;2.33;;;18.00;99.90;;;;;;5046351;28;20606;-82
2023/09/16 11:53:42;;;;;;;2.92;2.38;;;18.00;99.90;;;;;;5059542;28;20036;-78
2023/09/16 11:56:08;;;;;;;6.18;2.83;;;17.90;99.90;;;;;;5045642;28;20095;-80
2023/09/16 11:58:34;;;;;;;6.50;2.85;;;17.90;99.90;;;;;;5062309;28;20108;-80
2023/09/16 12:01:01;;;;;;;4.60;2.30;;;17.90;99.90;;;;;;5045646;28;20045;-78
2023/09/16 12:03:27;;;;;;;4.38;2.83;;;18.00;99.90;;;;;;5044618;28;20052;-79
2023/09/16 12:05:53;;;;;;;2.50;2.30;;;18.10;99.90;;;;;;5044438;28;20399;-78
2023/09/16 12:08:18;;;;;;;3.45;2.25;;;18.10;99.90;;;;;;5044486;28;20199;-78
2023/09/16 12:10:45;;;;;;;2.60;2.00;;;18.10;99.90;;;;;;5029837;28;20075;-78
2023/09/16 12:13:10;;;;;;;3.42;2.35;;;18.10;99.90;;;;;;5044824;28;20052;-78
2023/09/16 12:15:36;;;;;;;2.58;2.17;;;18.10;99.90;;;;;;5045592;28;20071;-81
2023/09/16 12:18:01;;;;;;;4.75;1.98;;;18.10;99.90;;;;;;5064287;28;20047;-80
2023/09/16 12:20:31;;;;;;;3.42;2.83;;;18.20;99.90;;;;;;5063220;28;20561;-81
2023/09/16 12:22:58;;;;;;;3.33;2.45;;;18.20;99.90;;;;;;5046093;28;20126;-83
2023/09/16 12:25:26;;;;;;;2.00;1.80;;;18.20;99.90;;;;;;5045786;28;20053;-80
2023/09/16 12:27:52;;;;;;;3.70;2.25;;;18.20;99.90;;;;;;5046217;28;20045;-78
2023/09/16 12:30:17;;;;;;;3.10;2.40;;;18.20;99.90;;;;;;5061956;28;20153;-80
2023/09/16 12:32:50;;;;;;;3.40;2.17;;;18.30;99.90;;;;;;5064273;28;20044;-80
2023/09/16 12:35:16;;;;;;;6.95;2.35;;;18.40;99.90;;;;;;5063452;28;20051;-80